createdAt,value
2023-05-16T00:31:18.270Z,5.57
2023-05-16T04:55:30.158Z,4.01
2023-05-16T04:57:56.967Z,3.97
2023-05-16T05:00:23.457Z,3.92
2023-05-16T05:02:50.070Z,3.99
2023-05-16T05:05:16.639Z,3.74
2023-05-16T05:07:43.088Z,4.21
2023-05-16T05:10:09.550Z,4.12
2023-05-16T05:12:36.020Z,4.01
2023-05-16T05:15:02.493Z,4.25
2023-05-16T05:17:29.056Z,3.99
2023-05-16T05:19:55.640Z,4.15
2023-05-16T05:22:22.117Z,4.39
2023-05-16T05:24:48.624Z,4.79
2023-05-16T05:27:15.143Z,4.73
2023-05-16T05:29:41.691Z,5.14
2023-05-16T05:32:08.226Z,4.83
2023-05-16T05:34:34.825Z,4.64
2023-05-16T05:37:01.376Z,4.97
2023-05-16T05:39:28.041Z,4.93
2023-05-16T05:41:54.613Z,4.74
2023-05-16T05:44:21.090Z,4.50
2023-05-16T05:46:47.631Z,4.68
2023-05-16T05:49:14.049Z,4.80
2023-05-16T05:51:40.525Z,4.71
2023-05-16T05:54:07.082Z,4.63
2023-05-16T05:56:33.592Z,4.68
2023-05-16T05:59:00.147Z,4.84
2023-05-16T06:01:26.783Z,4.88
2023-05-16T06:03:53.290Z,4.70
2023-05-16T06:06:19.760Z,4.68
2023-05-16T06:08:46.204Z,4.83
2023-05-16T06:11:12.772Z,4.63
2023-05-16T06:13:39.255Z,4.78
2023-05-16T06:16:08.130Z,4.79
2023-05-16T06:18:35.860Z,4.92
2023-05-16T06:21:02.321Z,4.80
2023-05-16T06:23:28.814Z,4.59
2023-05-16T06:25:55.293Z,4.78
2023-05-16T06:28:21.695Z,4.61
2023-05-16T06:30:48.147Z,4.52
2023-05-16T06:33:14.654Z,4.84
2023-05-16T06:35:41.189Z,4.81
2023-05-16T06:38:07.683Z,4.65
2023-05-16T06:40:34.141Z,4.44
2023-05-16T06:43:00.661Z,4.42
2023-05-16T06:45:27.404Z,4.65
2023-05-16T06:47:56.530Z,4.45
2023-05-16T06:50:23.789Z,4.27
2023-05-16T06:52:50.307Z,4.57
2023-05-16T06:55:16.808Z,4.49
2023-05-16T06:57:43.269Z,4.35
2023-05-16T07:00:09.784Z,4.62
2023-05-16T07:02:36.408Z,4.23
2023-05-16T07:05:03.044Z,4.46
2023-05-16T07:07:29.593Z,4.39
2023-05-16T07:09:56.166Z,4.47
2023-05-16T07:12:22.662Z,4.75
2023-05-16T07:14:49.215Z,4.45
2023-05-16T07:17:15.753Z,4.42
2023-05-16T07:19:42.311Z,4.29
2023-05-16T07:22:08.902Z,4.43
2023-05-16T07:24:38.312Z,4.32
2023-05-16T07:27:04.930Z,4.39
2023-05-16T07:29:31.497Z,4.33
2023-05-16T07:32:01.176Z,4.51
2023-05-16T07:34:27.749Z,4.36
2023-05-16T07:36:54.210Z,4.65
2023-05-16T07:39:20.725Z,4.81
2023-05-16T07:41:47.258Z,5.83
2023-05-16T07:44:13.840Z,5.14
2023-05-16T07:46:40.441Z,9.73
2023-05-16T07:49:07.209Z,5.34
2023-05-16T07:51:34.935Z,5.49
2023-05-16T07:54:01.417Z,5.27
2023-05-16T07:56:27.943Z,5.17
2023-05-16T15:41:43.198Z,6.76
2023-05-16T15:44:07.589Z,6.59
2023-05-16T15:46:34.281Z,6.40
2023-05-16T15:49:02.142Z,6.49
2023-05-16T15:51:28.664Z,6.42
2023-05-16T15:53:55.220Z,6.54
2023-05-16T15:56:21.757Z,6.53
2023-05-16T15:58:48.301Z,6.45
2023-05-16T16:01:14.942Z,6.39
2023-05-16T16:03:41.651Z,6.50
2023-05-16T16:06:08.411Z,6.57
2023-05-16T16:08:34.902Z,6.66
2023-05-16T16:11:01.388Z,6.65
2023-05-16T16:13:27.973Z,6.50
2023-05-16T16:15:54.527Z,6.16
2023-05-16T16:18:21.078Z,6.15
2023-05-16T16:20:47.666Z,6.26
2023-05-16T16:23:14.209Z,6.37
2023-05-16T16:25:40.758Z,6.28
2023-05-16T16:28:07.250Z,6.45
2023-05-16T16:30:33.755Z,6.06
2023-05-16T16:33:00.339Z,6.41
2023-05-16T16:35:27.194Z,5.94
2023-05-16T16:38:05.508Z,6.17
2023-05-16T16:40:33.101Z,6.32
2023-05-16T16:42:59.628Z,5.85
2023-05-16T16:45:26.317Z,6.00
2023-05-16T16:47:53.090Z,6.13
2023-05-16T16:50:19.609Z,6.06
2023-05-16T16:52:46.062Z,6.06
2023-05-16T16:55:12.537Z,6.00
2023-05-16T16:57:39.067Z,5.92
2023-05-16T17:00:05.732Z,5.77
2023-05-16T17:02:32.378Z,6.26
2023-05-16T17:04:58.979Z,5.88
2023-05-16T17:07:25.470Z,5.75
2023-05-16T17:09:52.029Z,5.87
2023-05-16T17:12:18.621Z,5.80
2023-05-16T17:14:45.159Z,5.74
2023-05-16T17:17:11.761Z,5.82
2023-05-16T17:19:38.349Z,5.87
2023-05-16T17:22:04.944Z,5.89
2023-05-16T17:24:31.511Z,5.58
2023-05-16T17:26:58.109Z,7.87
2023-05-16T17:29:24.667Z,9.20
2023-05-16T17:31:51.179Z,9.81
2023-05-16T17:34:17.723Z,9.33
2023-05-16T17:36:44.285Z,9.30
2023-05-16T17:39:10.917Z,13.20
2023-05-16T17:41:38.389Z,21.56
2023-05-16T17:44:04.906Z,14.52
2023-05-16T17:46:31.423Z,17.18
2023-05-16T17:48:57.982Z,19.70
2023-05-16T17:51:24.567Z,24.90
2023-05-16T17:53:51.162Z,25.21
2023-05-16T17:56:17.745Z,26.42
2023-05-16T17:58:44.306Z,30.55
2023-05-16T18:01:10.803Z,30.90
2023-05-16T18:03:37.388Z,33.47
2023-05-16T18:06:03.991Z,34.72
2023-05-16T18:08:30.651Z,36.31
2023-05-16T18:10:57.169Z,36.35
2023-05-16T18:13:23.680Z,45.91
2023-05-16T18:15:50.179Z,56.80
2023-05-16T18:18:16.773Z,60.63
2023-05-16T18:20:43.289Z,53.75
2023-05-16T18:23:09.780Z,55.76
2023-05-16T18:25:36.293Z,61.14
2023-05-16T18:28:02.848Z,60.09
2023-05-16T18:30:29.369Z,58.38
2023-05-16T18:32:56.036Z,50.17
2023-05-16T18:35:24.480Z,42.88
2023-05-16T18:37:53.885Z,43.04
2023-05-16T18:40:20.442Z,38.30
2023-05-16T18:42:46.967Z,35.84
2023-05-16T18:45:13.583Z,32.79
2023-05-16T18:47:40.235Z,30.04
2023-05-16T18:50:06.933Z,29.90
2023-05-16T18:52:33.492Z,29.65
2023-05-16T18:55:02.125Z,27.82
2023-05-16T18:57:28.686Z,27.16
2023-05-16T18:59:57.809Z,26.65
2023-05-16T19:02:30.589Z,25.61
2023-05-16T19:05:07.941Z,25.04
2023-05-16T19:07:34.529Z,23.77
2023-05-16T19:10:03.393Z,23.87
2023-05-16T19:12:30.449Z,23.01
2023-05-16T19:14:57.004Z,22.83
2023-05-16T19:17:23.525Z,23.72
2023-05-16T19:19:50.610Z,23.11
2023-05-16T19:22:17.155Z,22.97
2023-05-16T19:24:43.681Z,22.16
2023-05-16T19:27:10.197Z,22.11
2023-05-16T19:29:36.798Z,22.29
2023-05-16T19:32:03.305Z,21.86
2023-05-16T19:34:29.954Z,21.56
2023-05-16T19:36:56.525Z,21.64
2023-05-16T19:39:23.132Z,21.38
2023-05-16T19:41:52.100Z,20.83
2023-05-16T19:44:18.977Z,19.79
2023-05-16T19:46:45.462Z,20.37
2023-05-16T19:49:12.038Z,19.80
2023-05-16T19:51:41.728Z,20.03
2023-05-16T19:54:08.972Z,19.45
2023-05-16T19:56:35.529Z,18.60
2023-05-16T19:59:02.182Z,18.98
2023-05-16T20:01:28.769Z,19.10
2023-05-16T20:03:55.361Z,18.99
2023-05-16T20:06:22.016Z,19.01
2023-05-16T20:08:48.702Z,18.46
2023-05-16T20:11:15.379Z,18.38
2023-05-16T20:13:41.997Z,18.31
2023-05-16T20:16:08.628Z,18.42
2023-05-16T20:18:35.247Z,18.11
2023-05-16T20:21:01.872Z,17.97
2023-05-16T20:23:28.480Z,17.97
2023-05-16T20:25:54.972Z,18.04
2023-05-16T20:28:21.470Z,17.88
2023-05-16T20:30:48.095Z,17.43
2023-05-16T20:33:14.840Z,17.53
2023-05-16T20:35:41.464Z,17.56
2023-05-16T20:38:07.997Z,17.42
2023-05-16T20:40:34.635Z,17.10
2023-05-16T20:43:01.164Z,16.45
2023-05-16T20:45:28.058Z,17.73
2023-05-16T20:47:54.941Z,17.08
2023-05-16T20:50:21.580Z,17.02
2023-05-16T20:52:48.209Z,17.05
2023-05-16T20:55:14.751Z,16.51
2023-05-16T20:57:43.119Z,16.85
2023-05-16T21:00:10.399Z,16.69
2023-05-16T21:02:36.991Z,16.68
2023-05-16T21:05:23.132Z,16.77
2023-05-16T21:07:50.212Z,16.59
2023-05-16T21:10:16.875Z,16.65
2023-05-16T21:12:43.442Z,16.22
2023-05-16T21:15:10.051Z,16.67
2023-05-16T21:17:39.692Z,16.57
2023-05-16T21:20:06.466Z,16.01
2023-05-16T21:22:33.073Z,16.00
2023-05-16T21:24:59.638Z,15.97
2023-05-16T21:27:26.235Z,16.04
2023-05-16T21:29:52.804Z,15.90
2023-05-16T21:32:19.402Z,15.73
2023-05-16T21:34:45.938Z,15.62
2023-05-16T21:37:12.537Z,15.73
2023-05-16T21:39:39.181Z,14.98
2023-05-16T21:42:05.809Z,15.80
2023-05-16T21:44:32.362Z,15.45
2023-05-16T21:46:59.001Z,15.33
2023-05-16T21:49:25.568Z,15.24
2023-05-16T21:51:52.183Z,15.50
2023-05-16T21:54:18.711Z,15.01
2023-05-16T21:56:45.342Z,14.44
2023-05-16T21:59:11.897Z,14.98
2023-05-16T22:01:38.508Z,15.24
2023-05-16T22:04:05.464Z,15.00
2023-05-16T22:06:32.204Z,14.62
2023-05-16T22:08:58.949Z,14.01
2023-05-16T22:11:25.493Z,14.41
2023-05-16T22:13:52.083Z,14.26
2023-05-16T22:16:18.677Z,14.38
2023-05-16T22:18:45.551Z,14.40
2023-05-16T22:21:12.354Z,14.20
2023-05-16T22:23:39.009Z,14.52
2023-05-16T22:26:05.553Z,14.25
2023-05-16T22:28:32.084Z,14.44
2023-05-16T22:30:58.691Z,13.87
2023-05-16T22:33:25.495Z,14.16
2023-05-16T22:35:52.239Z,13.98
2023-05-16T22:38:18.762Z,13.98
2023-05-16T22:40:45.323Z,13.49
2023-05-16T22:43:11.798Z,13.04
2023-05-16T22:45:38.408Z,13.12
2023-05-16T22:48:05.046Z,13.01
2023-05-16T22:50:31.664Z,13.36
2023-05-16T22:52:58.212Z,13.53
2023-05-16T22:55:24.778Z,12.81
2023-05-16T22:57:51.366Z,13.15
2023-05-16T23:00:17.881Z,13.17
2023-05-16T23:02:44.514Z,12.62
2023-05-16T23:05:11.213Z,12.87
2023-05-16T23:07:37.710Z,12.87
2023-05-16T23:10:04.175Z,12.63
2023-05-16T23:12:30.658Z,12.62
2023-05-16T23:14:57.210Z,12.92
2023-05-16T23:17:23.897Z,12.31
2023-05-16T23:19:50.542Z,11.58
2023-05-16T23:22:17.281Z,12.48
2023-05-16T23:24:43.950Z,12.11
2023-05-16T23:27:10.497Z,12.38
2023-05-16T23:29:38.043Z,12.05
2023-05-16T23:32:04.606Z,11.43
2023-05-16T23:34:31.199Z,11.89
2023-05-16T23:36:57.757Z,11.73
2023-05-16T23:39:24.285Z,11.92
2023-05-16T23:41:50.806Z,11.66
2023-05-16T23:44:17.368Z,11.67
2023-05-16T23:46:43.922Z,11.78
2023-05-16T23:49:10.518Z,11.27
2023-05-16T23:51:52.814Z,11.37
2023-05-16T23:54:22.341Z,11.58
2023-05-16T23:56:49.042Z,11.27
2023-05-16T23:59:15.660Z,10.77
